Flight Number: AVA1049 Duration: 1:00
Departure: Geneva Cointrin (LSGG) at 05:45 Distance: 223.568 Nm
Arrival: Innsbruck (LOWI) at 06:45 Equipment: ATR72

Weather Information
Geneve-Cointrin, Switzerland (LSGG) 46-15N 006-08E 416M May 30, 2023 - 02:50 AM EDT / 2023.05.30 0650 UTC
Wind: Variable at 2 MPH (2 KT):0
Visibility: greater than 7 mile(s):0 Temperature: 64 F (18 C) Dew Point: 48 F (9 C) Relative Humidity: 55% Pressure (altimeter): 30.06 in. Hg (1018 hPa)
ob: LSGG 300650Z VRB02KT CAVOK 18/09 Q1018 NOSIG cycle: 7
Sunrise: 03:52 Sunset: 19:13 (UTC)

Innsbruck-Flughafen, Austria (LOWI) 47-16N 011-21E 593M May 30, 2023 - 02:50 AM EDT / 2023.05.30 0650 UTC
Wind: Variable at 2 MPH (2 KT):0
Visibility: greater than 7 mile(s):0 Temperature: 57 F (14 C) Dew Point: 48 F (9 C) Relative Humidity: 71% Pressure (altimeter): 30.12 in. Hg (1020 hPa)
ob: LOWI 300650Z VRB02KT CAVOK 14/09 Q1020 NOSIG cycle: 7
Sunrise: 03:27 Sunset: 18:56 (UTC)

TAF:2023/05/30 06:21 TAF LOWI 300515Z 3006/3106 27005KT CAVOK TX24/3014Z TN10/3104Z BECMG 3008/3010 10010KT TEMPO 3012/3015 VRB15KT SHRA SCT070TCU BECMG 3018/3020 VRB03KT

Previous Pireps for this route
Date Flightnr Aircraft Flight time Fuel used Landing rate On time
2017-11-03AVA1828B1900D01.38829-50Yes
(pireps marked green are flown by you)

Route map